Time;durP1;ratioP1;P1;durP2;ratioP2;P2;SDS_P1;SDS_P2;PMS_P1;PMS_P2;Temp;Humidity;BMP_temperature;BMP_pressure;BME280_temperature;BME280_humidity;BME280_pressure;Samples;Min_cycle;Max_cycle;Signal;HPM_P1;HPM_P2
2023/10/20 00:01:45;;;;;;;22.58;13.43;;;8.00;99.90;;;;;;5071671;28;20045;-75
2023/10/20 00:04:11;;;;;;;21.75;12.52;;;8.10;99.90;;;;;;5055001;28;20119;-75
2023/10/20 00:06:39;;;;;;;20.80;11.95;;;8.10;99.90;;;;;;5069995;28;20036;-75
2023/10/20 00:09:06;;;;;;;18.92;11.07;;;8.20;99.90;;;;;;5053779;28;20055;-75
2023/10/20 00:11:32;;;;;;;22.70;14.50;;;8.20;99.90;;;;;;5051779;28;20067;-75
2023/10/20 00:13:58;;;;;;;22.52;13.65;;;8.20;99.90;;;;;;5066480;28;20048;-75
2023/10/20 00:16:28;;;;;;;23.88;13.32;;;8.20;99.90;;;;;;5070957;28;20074;-75
2023/10/20 00:18:56;;;;;;;25.05;15.13;;;8.20;99.90;;;;;;5051463;28;20497;-75
2023/10/20 00:21:21;;;;;;;25.55;14.23;;;8.20;99.90;;;;;;5056021;28;20072;-76
2023/10/20 00:23:47;;;;;;;28.00;15.93;;;8.20;99.90;;;;;;5062380;28;20068;-76
2023/10/20 00:26:13;;;;;;;25.77;15.13;;;8.10;99.90;;;;;;5071454;28;20037;-75
2023/10/20 00:28:39;;;;;;;25.45;14.65;;;8.10;99.90;;;;;;5053965;28;20043;-75
2023/10/20 00:31:05;;;;;;;23.60;15.23;;;8.20;99.90;;;;;;5054014;28;20037;-74
2023/10/20 00:33:30;;;;;;;25.75;16.42;;;8.20;99.90;;;;;;5049136;28;20443;-76
2023/10/20 00:35:56;;;;;;;29.10;17.15;;;8.10;99.90;;;;;;5051315;28;20041;-75
2023/10/20 00:38:21;;;;;;;27.83;17.40;;;8.10;99.90;;;;;;5050494;28;20044;-75
2023/10/20 00:40:48;;;;;;;27.23;16.08;;;8.10;99.90;;;;;;5069529;28;20314;-74
2023/10/20 00:43:14;;;;;;;26.90;14.23;;;8.20;99.90;;;;;;5072895;28;20089;-75
2023/10/20 00:45:40;;;;;;;31.92;17.88;;;8.20;99.90;;;;;;5054936;28;20041;-75
2023/10/20 00:48:13;;;;;;;30.98;18.25;;;8.20;99.90;;;;;;5068340;28;20119;-74
2023/10/20 00:50:40;;;;;;;25.73;14.43;;;8.10;99.90;;;;;;5057333;28;20516;-76
2023/10/20 00:53:09;;;;;;;27.83;15.90;;;8.20;99.90;;;;;;5091778;28;20048;-76
2023/10/20 00:55:34;;;;;;;29.75;16.25;;;8.20;99.90;;;;;;5057494;28;20087;-76
2023/10/20 00:58:00;;;;;;;32.33;17.17;;;8.20;99.90;;;;;;5084122;28;20053;-76
2023/10/20 01:00:26;;;;;;;32.75;17.85;;;8.20;99.90;;;;;;5091552;28;20442;-76
2023/10/20 01:02:55;;;;;;;32.35;17.73;;;8.10;99.90;;;;;;5055735;28;20034;-75
2023/10/20 01:05:22;;;;;;;29.98;16.60;;;8.10;99.90;;;;;;5066064;28;20501;-76
2023/10/20 01:07:48;;;;;;;28.70;17.02;;;8.10;99.90;;;;;;5055653;28;20511;-76
2023/10/20 01:10:14;;;;;;;30.80;17.45;;;8.20;99.90;;;;;;5057864;28;20040;-76
2023/10/20 01:12:40;;;;;;;40.95;21.67;;;8.20;99.90;;;;;;5057249;28;20446;-76
2023/10/20 01:15:06;;;;;;;34.10;17.95;;;8.10;99.90;;;;;;5073413;28;20493;-76
2023/10/20 01:17:32;;;;;;;30.85;16.77;;;8.10;99.90;;;;;;5057150;28;20044;-76
2023/10/20 01:20:08;;;;;;;24.55;13.50;;;8.10;99.90;;;;;;5057924;28;20410;-76
2023/10/20 01:22:34;;;;;;;29.20;16.13;;;8.10;99.90;;;;;;5068959;28;20056;-76
2023/10/20 01:24:59;;;;;;;32.72;18.17;;;8.10;99.90;;;;;;5062156;28;20028;-76
2023/10/20 01:27:25;;;;;;;27.42;13.82;;;8.00;99.90;;;;;;5074484;28;20040;-77
2023/10/20 01:29:51;;;;;;;35.53;18.90;;;8.10;99.90;;;;;;5057676;28;20044;-76
2023/10/20 01:32:17;;;;;;;39.10;20.95;;;8.00;99.90;;;;;;5073090;28;20036;-76
2023/10/20 01:34:43;;;;;;;31.42;16.98;;;8.00;99.90;;;;;;5074055;28;20037;-75
2023/10/20 01:37:11;;;;;;;30.73;16.27;;;8.00;99.90;;;;;;5055287;28;20090;-76
2023/10/20 01:39:37;;;;;;;36.83;17.90;;;8.00;99.90;;;;;;5073409;28;20402;-75
2023/10/20 01:42:03;;;;;;;39.00;18.92;;;8.00;99.90;;;;;;5056398;28;20040;-75
2023/10/20 01:44:29;;;;;;;22.42;11.77;;;8.00;99.90;;;;;;5055027;28;20027;-74
2023/10/20 01:46:54;;;;;;;29.23;14.50;;;8.00;99.90;;;;;;5054514;28;20037;-74
2023/10/20 01:49:20;;;;;;;28.85;15.95;;;8.10;99.90;;;;;;5073954;28;20514;-74
2023/10/20 01:51:46;;;;;;;38.50;18.42;;;8.10;99.90;;;;;;5050625;28;20037;-75
2023/10/20 01:54:12;;;;;;;29.90;15.80;;;8.00;99.90;;;;;;5075100;28;20044;-76
2023/10/20 01:56:37;;;;;;;33.85;17.05;;;8.00;99.90;;;;;;5081476;28;20056;-76
2023/10/20 01:59:03;;;;;;;32.28;18.13;;;8.00;99.90;;;;;;5056846;28;20123;-76
2023/10/20 02:01:29;;;;;;;29.27;15.45;;;8.00;99.90;;;;;;5054658;28;20050;-76
2023/10/20 02:03:55;;;;;;;28.73;15.65;;;8.00;99.90;;;;;;5056789;28;20068;-75
2023/10/20 02:06:20;;;;;;;28.35;15.10;;;8.10;99.90;;;;;;5072462;28;20041;-74
2023/10/20 02:08:46;;;;;;;30.10;15.07;;;8.20;99.90;;;;;;5056914;28;20397;-75
2023/10/20 02:11:12;;;;;;;28.02;17.10;;;8.10;99.90;;;;;;5055909;28;20039;-76
2023/10/20 02:13:42;;;;;;;32.55;18.45;;;8.10;99.90;;;;;;5056609;28;20063;-76
2023/10/20 02:16:08;;;;;;;32.30;17.85;;;8.10;99.90;;;;;;5069010;28;20055;-76
2023/10/20 02:18:34;;;;;;;35.67;19.10;;;8.10;99.90;;;;;;5056502;28;20082;-76
2023/10/20 02:21:03;;;;;;;25.35;13.77;;;8.00;99.90;;;;;;5054207;28;20041;-75
2023/10/20 02:23:38;;;;;;;29.50;16.85;;;8.10;99.90;;;;;;5072215;28;20093;-77
2023/10/20 02:26:06;;;;;;;24.63;14.32;;;8.10;99.90;;;;;;5073372;28;20139;-75
2023/10/20 02:28:35;;;;;;;31.45;17.55;;;8.20;99.90;;;;;;5054407;28;20401;-76
2023/10/20 02:31:09;;;;;;;29.98;15.25;;;8.10;99.90;;;;;;5055607;28;20090;-77
2023/10/20 02:33:35;;;;;;;26.27;15.68;;;8.10;99.90;;;;;;5062916;28;20075;-76
2023/10/20 02:36:01;;;;;;;29.38;16.23;;;8.00;99.90;;;;;;5052554;28;20516;-78
2023/10/20 02:38:27;;;;;;;30.05;16.02;;;8.00;99.90;;;;;;5046519;28;20041;-76
2023/10/20 02:40:54;;;;;;;20.48;12.38;;;8.10;99.90;;;;;;5062521;28;20047;-78
2023/10/20 02:43:23;;;;;;;27.27;16.23;;;8.10;99.90;;;;;;5044633;28;20033;-76
2023/10/20 02:45:51;;;;;;;22.65;12.60;;;8.10;99.90;;;;;;5063484;28;20033;-76
2023/10/20 02:48:16;;;;;;;23.25;13.55;;;8.10;99.90;;;;;;5061262;28;20072;-76
2023/10/20 02:50:42;;;;;;;29.13;16.27;;;8.20;99.90;;;;;;5060312;28;20095;-76
2023/10/20 02:53:08;;;;;;;28.70;17.83;;;8.10;99.90;;;;;;5069905;28;20048;-76
2023/10/20 02:55:34;;;;;;;22.98;13.90;;;8.10;99.90;;;;;;5071520;28;20412;-75
2023/10/20 02:58:03;;;;;;;26.75;15.27;;;8.10;99.90;;;;;;5051785;28;20044;-76
2023/10/20 03:00:28;;;;;;;24.90;15.70;;;8.10;99.90;;;;;;5054458;28;20512;-76
2023/10/20 03:02:55;;;;;;;21.63;12.60;;;8.10;99.90;;;;;;5055714;28;20159;-76
2023/10/20 03:05:21;;;;;;;21.30;12.93;;;8.10;99.90;;;;;;5053229;28;20115;-75
2023/10/20 03:07:47;;;;;;;21.25;13.35;;;8.20;99.90;;;;;;5055561;28;20044;-75
2023/10/20 03:10:13;;;;;;;24.80;14.07;;;8.20;99.90;;;;;;5071331;28;20432;-76
2023/10/20 03:12:38;;;;;;;20.17;13.00;;;8.10;99.90;;;;;;5053617;28;20070;-77
2023/10/20 03:15:07;;;;;;;23.13;14.15;;;8.10;99.90;;;;;;5068669;28;20071;-77
2023/10/20 03:17:32;;;;;;;22.23;13.38;;;8.10;99.90;;;;;;5065369;28;20079;-77
2023/10/20 03:19:58;;;;;;;64.18;57.70;;;8.20;99.90;;;;;;5058272;28;20071;-77
2023/10/20 03:22:24;;;;;;;22.00;13.63;;;8.10;99.90;;;;;;5055616;28;20074;-77
2023/10/20 03:24:49;;;;;;;20.70;13.10;;;8.10;99.90;;;;;;5069477;28;20028;-77
2023/10/20 03:27:15;;;;;;;25.90;14.77;;;8.10;99.90;;;;;;5054977;28;20397;-77
2023/10/20 03:29:40;;;;;;;27.63;16.92;;;8.10;99.90;;;;;;5055462;28;20040;-78
2023/10/20 03:32:06;;;;;;;23.90;14.43;;;8.00;99.90;;;;;;5065494;28;20063;-78
2023/10/20 03:34:32;;;;;;;22.73;13.02;;;8.10;99.90;;;;;;5051792;28;20072;-77
2023/10/20 03:36:58;;;;;;;24.05;13.93;;;8.00;99.90;;;;;;5052895;28;20225;-77
2023/10/20 03:39:24;;;;;;;25.10;15.18;;;8.00;99.90;;;;;;5071878;28;20500;-80
2023/10/20 03:41:49;;;;;;;21.27;12.13;;;8.00;99.90;;;;;;5051468;28;20032;-78
2023/10/20 03:44:16;;;;;;;24.52;14.65;;;8.00;99.90;;;;;;5053495;28;20457;-78
2023/10/20 03:46:48;;;;;;;20.30;12.55;;;8.00;99.90;;;;;;5070306;28;20033;-78
2023/10/20 03:49:15;;;;;;;;;;;8.00;99.90;;;;;;5071104;28;20049;-78
2023/10/20 03:51:48;;;;;;;24.13;13.77;;;8.00;99.90;;;;;;5051495;28;19916;-78
2023/10/20 03:54:15;;;;;;;18.50;11.13;;;8.00;99.90;;;;;;5065236;28;20075;-77
2023/10/20 03:56:41;;;;;;;22.17;13.63;;;8.10;99.90;;;;;;5073377;28;20053;-77
2023/10/20 03:59:08;;;;;;;23.05;14.15;;;8.10;99.90;;;;;;5042320;28;20128;-76
2023/10/20 04:01:34;;;;;;;22.02;13.05;;;8.00;99.90;;;;;;5051569;28;20171;-77
2023/10/20 04:03:59;;;;;;;20.05;10.90;;;8.00;99.90;;;;;;5067808;28;20178;-77
2023/10/20 04:06:25;;;;;;;18.08;10.95;;;8.00;99.90;;;;;;5071674;28;20032;-76
2023/10/20 04:08:50;;;;;;;15.48;6.85;;;8.00;99.90;;;;;;5053219;28;20033;-76
2023/10/20 04:11:16;;;;;;;21.95;13.80;;;8.10;99.90;;;;;;5089533;28;20036;-78
2023/10/20 04:13:41;;;;;;;19.98;12.07;;;8.00;99.90;;;;;;5059214;28;20044;-78
2023/10/20 04:16:16;;;;;;;14.27;8.30;;;8.00;99.90;;;;;;5053418;28;20415;-75
2023/10/20 04:18:43;;;;;;;23.00;13.75;;;7.90;99.90;;;;;;5046144;28;20036;-77
2023/10/20 04:21:12;;;;;;;16.70;10.38;;;7.90;99.90;;;;;;5058786;28;20402;-76
2023/10/20 04:23:38;;;;;;;12.88;7.38;;;7.90;99.90;;;;;;5073077;28;20094;-76
2023/10/20 04:26:15;;;;;;;15.57;9.88;;;8.00;99.90;;;;;;5058792;28;20041;-76
2023/10/20 04:28:42;;;;;;;16.85;10.52;;;8.00;99.90;;;;;;5052844;28;20032;-77
2023/10/20 04:58:01;;;;;;;17.50;10.02;;;7.90;99.90;;;;;;5072124;28;20040;-75
2023/10/20 05:05:34;;;;;;;21.25;12.02;;;7.90;99.90;;;;;;5073724;28;20481;-75
2023/10/20 05:08:17;;;;;;;18.80;10.88;;;7.90;99.90;;;;;;5053767;28;20123;-78
2023/10/20 05:10:43;;;;;;;11.82;6.82;;;7.90;99.90;;;;;;5056787;28;20032;-76
2023/10/20 05:13:12;;;;;;;15.32;9.07;;;7.90;99.90;;;;;;5069540;28;20127;-76
2023/10/20 05:15:41;;;;;;;17.02;10.38;;;7.90;99.90;;;;;;5090960;28;20048;-77
2023/10/20 05:18:11;;;;;;;16.90;10.98;;;7.90;99.90;;;;;;5072023;28;20492;-76
2023/10/20 05:20:37;;;;;;;19.58;11.25;;;7.90;99.90;;;;;;5050887;28;20047;-78
2023/10/20 05:23:04;;;;;;;14.13;8.75;;;7.90;99.90;;;;;;5054820;28;20040;-79
2023/10/20 05:25:29;;;;;;;17.63;9.75;;;7.80;99.90;;;;;;5072967;28;20055;-77
2023/10/20 05:27:55;;;;;;;14.48;9.15;;;7.80;99.90;;;;;;5067006;28;20029;-78
2023/10/20 05:30:20;;;;;;;14.98;10.38;;;7.90;99.90;;;;;;5056508;28;20032;-77
2023/10/20 05:32:48;;;;;;;14.52;8.90;;;7.80;99.90;;;;;;5052308;28;20040;-78
2023/10/20 05:35:13;;;;;;;15.32;9.02;;;7.90;99.90;;;;;;5057457;28;20041;-78
2023/10/20 05:37:39;;;;;;;12.57;7.82;;;7.90;99.90;;;;;;5071581;28;20056;-79
2023/10/20 05:40:05;;;;;;;15.32;8.55;;;7.80;99.90;;;;;;5065106;28;20123;-78
2023/10/20 05:42:31;;;;;;;14.73;8.30;;;7.80;99.90;;;;;;5069045;28;20032;-77
2023/10/20 05:45:09;;;;;;;15.82;8.18;;;7.80;99.90;;;;;;5069933;28;20400;-78
2023/10/20 05:47:35;;;;;;;14.73;9.00;;;7.80;99.90;;;;;;5044222;28;20094;-78
2023/10/20 05:50:02;;;;;;;11.05;6.57;;;7.90;99.90;;;;;;5071144;28;20447;-79
2023/10/20 05:52:28;;;;;;;10.82;6.50;;;7.90;99.90;;;;;;5072054;28;20385;-78
2023/10/20 05:54:55;;;;;;;14.00;7.97;;;7.90;99.90;;;;;;5071980;28;20043;-77
2023/10/20 05:57:22;;;;;;;11.07;6.40;;;7.90;99.90;;;;;;5057193;28;20400;-76
2023/10/20 05:59:48;;;;;;;12.77;7.72;;;7.90;99.90;;;;;;5071641;28;20040;-79
2023/10/20 06:02:14;;;;;;;11.68;7.28;;;8.00;99.90;;;;;;5084208;28;20047;-79
2023/10/20 06:04:40;;;;;;;7.90;5.13;;;7.90;99.90;;;;;;5070973;28;20119;-77
2023/10/20 06:07:06;;;;;;;12.95;7.47;;;7.90;99.90;;;;;;5056061;28;20086;-77
2023/10/20 06:09:32;;;;;;;12.43;7.32;;;8.10;99.90;;;;;;5067653;28;20397;-76
2023/10/20 06:11:59;;;;;;;9.07;5.05;;;8.00;99.90;;;;;;5070317;28;20044;-77
2023/10/20 06:14:25;;;;;;;10.20;5.68;;;8.00;99.90;;;;;;5069695;28;20187;-77
2023/10/20 06:16:51;;;;;;;10.23;6.03;;;8.00;99.90;;;;;;5082689;28;20075;-78
2023/10/20 06:19:17;;;;;;;9.68;6.20;;;7.90;99.90;;;;;;5089499;28;20550;-79
2023/10/20 06:21:43;;;;;;;10.65;5.55;;;8.00;99.90;;;;;;5059958;28;20037;-78
2023/10/20 06:24:12;;;;;;;8.77;5.07;;;8.00;99.90;;;;;;5054175;28;20045;-78
2023/10/20 06:26:38;;;;;;;9.35;4.78;;;8.00;99.90;;;;;;5065337;28;20454;-78
2023/10/20 06:31:57;;;;;;;10.20;5.93;;;7.90;99.90;;;;;;5063260;28;20052;-77
2023/10/20 06:34:23;;;;;;;11.23;5.35;;;8.00;99.90;;;;;;5060337;28;20041;-78
2023/10/20 06:39:47;;;;;;;11.50;6.72;;;8.00;99.90;;;;;;4988743;28;20074;-77
2023/10/20 06:42:13;;;;;;;11.48;5.72;;;7.90;99.90;;;;;;5056207;28;20574;-77
2023/10/20 06:44:38;;;;;;;9.25;5.43;;;8.00;99.90;;;;;;5067197;28;20033;-77
2023/10/20 06:47:04;;;;;;;13.13;6.40;;;8.00;99.90;;;;;;5069521;28;20037;-79
2023/10/20 06:49:32;;;;;;;10.73;5.43;;;8.00;99.90;;;;;;5067206;28;20111;-77
2023/10/20 06:52:01;;;;;;;13.15;5.32;;;8.10;99.90;;;;;;5075876;28;20055;-77
2023/10/20 06:54:26;;;;;;;8.73;5.13;;;8.10;99.90;;;;;;5042892;28;20489;-77
2023/10/20 06:56:52;;;;;;;8.98;4.80;;;8.00;99.90;;;;;;5070522;28;20090;-79
2023/10/20 06:59:17;;;;;;;9.65;5.40;;;8.00;99.90;;;;;;5055876;28;20135;-78
2023/10/20 07:01:43;;;;;;;10.48;5.47;;;8.00;99.90;;;;;;5061403;28;20056;-77
2023/10/20 07:04:09;;;;;;;10.50;5.30;;;8.00;99.90;;;;;;5064160;28;20039;-78
2023/10/20 07:06:38;;;;;;;9.05;5.05;;;8.00;99.90;;;;;;5050694;28;20024;-79
2023/10/20 07:09:11;;;;;;;8.52;4.28;;;8.10;99.90;;;;;;5070940;28;20032;-78
2023/10/20 07:11:41;;;;;;;8.02;3.63;;;8.10;99.90;;;;;;5070583;28;20089;-80
2023/10/20 07:14:07;;;;;;;8.10;4.00;;;8.10;99.90;;;;;;5054823;28;20040;-77
2023/10/20 07:16:33;;;;;;;9.48;3.95;;;8.10;99.90;;;;;;5063381;28;20120;-78
2023/10/20 07:19:02;;;;;;;7.75;3.63;;;8.10;99.90;;;;;;5040859;28;20045;-78
2023/10/20 07:21:28;;;;;;;9.05;4.95;;;8.10;99.90;;;;;;5055209;28;20484;-79
2023/10/20 07:23:55;;;;;;;7.38;4.38;;;8.00;99.90;;;;;;5058649;28;20025;-77
2023/10/20 07:26:21;;;;;;;8.77;4.88;;;7.90;99.90;;;;;;5064150;28;20033;-79
2023/10/20 07:28:47;;;;;;;7.65;3.97;;;7.90;99.90;;;;;;5052334;28;20111;-78
2023/10/20 07:31:13;;;;;;;8.45;4.45;;;7.90;99.90;;;;;;5070657;28;20045;-78
2023/10/20 07:33:39;;;;;;;8.27;4.18;;;7.90;99.90;;;;;;5056473;28;20083;-78
2023/10/20 07:36:05;;;;;;;8.88;3.65;;;8.00;99.90;;;;;;5069671;28;20040;-76
2023/10/20 07:38:31;;;;;;;14.07;7.95;;;8.00;99.90;;;;;;5047127;28;20048;-76
2023/10/20 07:41:06;;;;;;;10.52;5.85;;;7.90;99.90;;;;;;5066280;28;20082;-77
2023/10/20 07:43:33;;;;;;;8.10;4.70;;;7.90;99.90;;;;;;5068923;28;20037;-78
2023/10/20 07:45:58;;;;;;;7.80;3.83;;;7.90;99.90;;;;;;5055281;28;20044;-76
2023/10/20 07:48:26;;;;;;;7.65;4.00;;;7.90;99.90;;;;;;5050571;28;20082;-78
2023/10/20 07:50:52;;;;;;;8.50;3.85;;;7.80;99.90;;;;;;5049771;28;20037;-75
2023/10/20 07:53:18;;;;;;;8.52;3.72;;;7.80;99.90;;;;;;5042042;28;20549;-76
2023/10/20 07:55:44;;;;;;;6.45;3.33;;;7.80;99.90;;;;;;5070246;28;20056;-76
2023/10/20 07:58:10;;;;;;;6.47;3.33;;;7.90;99.90;;;;;;5038125;28;20041;-75
2023/10/20 08:00:36;;;;;;;7.90;3.42;;;7.80;99.90;;;;;;5053822;28;20032;-83
2023/10/20 08:03:02;;;;;;;7.20;3.53;;;7.80;99.90;;;;;;5053952;28;20036;-75
2023/10/20 08:05:28;;;;;;;7.53;3.38;;;7.80;99.90;;;;;;5052858;28;20044;-76
2023/10/20 08:07:55;;;;;;;6.03;2.92;;;7.80;99.90;;;;;;5068861;28;20041;-75
2023/10/20 08:10:23;;;;;;;5.30;2.47;;;7.80;99.90;;;;;;5067326;28;20077;-74
2023/10/20 08:12:49;;;;;;;5.70;2.70;;;7.80;99.90;;;;;;5053677;28;20435;-77
2023/10/20 08:15:15;;;;;;;9.18;3.10;;;7.90;99.90;;;;;;5052465;28;20044;-77
2023/10/20 08:17:40;;;;;;;5.60;2.65;;;7.80;99.90;;;;;;5069592;28;20044;-76
2023/10/20 08:20:10;;;;;;;5.22;2.47;;;7.80;99.90;;;;;;5069996;28;20040;-75
2023/10/20 08:22:36;;;;;;;5.68;1.80;;;7.80;99.90;;;;;;5067109;28;20032;-74
2023/10/20 08:25:02;;;;;;;6.03;2.70;;;7.80;99.90;;;;;;5069249;28;20044;-73
2023/10/20 08:27:28;;;;;;;6.65;2.60;;;7.80;99.90;;;;;;5068002;28;20358;-76
2023/10/20 08:29:56;;;;;;;4.72;2.47;;;7.80;99.90;;;;;;5052068;28;20033;-75
2023/10/20 08:32:23;;;;;;;4.90;2.38;;;7.70;99.90;;;;;;5053409;28;20123;-75
2023/10/20 08:34:49;;;;;;;6.30;2.45;;;7.70;99.90;;;;;;5069019;28;20041;-76
2023/10/20 08:37:15;;;;;;;7.25;2.90;;;7.60;99.90;;;;;;5057340;28;20120;-75
2023/10/20 08:39:40;;;;;;;4.78;2.30;;;7.70;99.90;;;;;;5045310;28;20488;-74
2023/10/20 08:42:20;;;;;;;6.03;2.97;;;7.60;99.90;;;;;;5070277;28;20106;-77
2023/10/20 08:44:46;;;;;;;4.50;2.10;;;7.60;99.90;;;;;;5077736;28;20505;-74
2023/10/20 08:47:19;;;;;;;4.35;2.20;;;7.70;99.90;;;;;;5084944;28;20045;-75
2023/10/20 08:49:46;;;;;;;5.68;2.33;;;7.80;99.90;;;;;;5069170;28;20436;-74
2023/10/20 08:52:12;;;;;;;3.92;2.17;;;7.70;99.90;;;;;;5069784;28;20055;-76
2023/10/20 08:54:38;;;;;;;4.80;2.50;;;7.70;99.90;;;;;;5053028;28;20041;-76
2023/10/20 08:57:05;;;;;;;5.90;2.75;;;7.60;99.90;;;;;;5052547;28;20130;-75
2023/10/20 08:59:31;;;;;;;6.82;2.75;;;7.60;99.90;;;;;;5053238;28;20498;-75
2023/10/20 09:01:57;;;;;;;7.28;3.47;;;7.70;99.90;;;;;;5052781;28;20049;-75
2023/10/20 09:04:24;;;;;;;4.43;2.05;;;7.60;99.90;;;;;;5055360;28;20485;-75
2023/10/20 09:06:50;;;;;;;4.05;1.50;;;7.60;99.90;;;;;;5070569;28;20040;-75
2023/10/20 09:09:17;;;;;;;3.92;1.90;;;7.60;99.90;;;;;;5055868;28;20507;-75
2023/10/20 09:11:43;;;;;;;5.85;2.40;;;7.60;99.90;;;;;;5072895;28;20507;-75
2023/10/20 09:14:10;;;;;;;2.58;1.52;;;7.60;99.90;;;;;;5071947;28;20045;-75
2023/10/20 09:16:36;;;;;;;4.47;2.30;;;7.60;99.90;;;;;;5073264;28;20071;-76
2023/10/20 09:19:03;;;;;;;4.80;2.28;;;7.50;99.90;;;;;;5064301;28;20040;-75
2023/10/20 09:21:29;;;;;;;5.20;2.15;;;7.60;99.90;;;;;;5071836;28;20045;-75
2023/10/20 09:24:03;;;;;;;3.85;1.77;;;7.50;99.90;;;;;;5072424;28;20044;-75
2023/10/20 09:26:31;;;;;;;5.07;2.30;;;7.60;99.90;;;;;;5054764;28;20093;-75
2023/10/20 09:28:57;;;;;;;3.58;1.95;;;7.50;99.90;;;;;;5061796;28;20037;-77
2023/10/20 09:31:24;;;;;;;3.95;1.90;;;7.60;99.90;;;;;;5084575;28;20094;-76
2023/10/20 09:33:50;;;;;;;3.65;1.95;;;7.50;99.90;;;;;;5074348;28;20032;-75
2023/10/20 09:36:17;;;;;;;4.22;2.00;;;7.50;99.90;;;;;;5063888;28;20045;-76
2023/10/20 09:38:54;;;;;;;4.93;1.80;;;7.50;99.90;;;;;;5064401;28;20037;-75
2023/10/20 09:41:28;;;;;;;4.40;1.85;;;7.40;99.90;;;;;;5049779;28;20040;-75
2023/10/20 09:44:02;;;;;;;3.55;1.50;;;7.40;99.90;;;;;;5062338;28;20044;-74
2023/10/20 09:46:53;;;;;;;3.40;1.55;;;7.50;99.90;;;;;;5072433;28;20557;-75
2023/10/20 09:49:21;;;;;;;3.42;1.77;;;7.50;99.90;;;;;;5041017;28;20044;-75
2023/10/20 09:51:48;;;;;;;4.30;2.08;;;7.40;99.90;;;;;;5069601;28;20047;-74
2023/10/20 09:54:16;;;;;;;8.23;2.05;;;7.40;99.90;;;;;;5036467;28;20033;-78
2023/10/20 09:56:44;;;;;;;4.00;1.42;;;7.40;99.90;;;;;;5056511;28;20550;-75
2023/10/20 09:59:15;;;;;;;4.03;1.83;;;7.40;99.90;;;;;;5054381;28;20492;-76
2023/10/20 10:01:43;;;;;;;3.38;1.55;;;7.40;99.90;;;;;;5054906;28;20048;-80
2023/10/20 10:04:10;;;;;;;3.80;1.70;;;7.40;99.90;;;;;;5055372;28;20063;-81
2023/10/20 10:06:38;;;;;;;2.72;1.52;;;7.30;99.90;;;;;;5055637;28;20396;-80
2023/10/20 10:09:08;;;;;;;2.35;1.33;;;7.30;99.90;;;;;;5053893;28;20089;-80
2023/10/20 10:11:39;;;;;;;2.75;1.23;;;7.30;99.90;;;;;;5062885;28;20036;-80
2023/10/20 10:14:06;;;;;;;3.67;1.30;;;7.40;99.90;;;;;;5053666;28;20036;-81
2023/10/20 10:16:32;;;;;;;6.93;1.30;;;7.40;99.90;;;;;;5054953;28;20036;-75
2023/10/20 10:19:09;;;;;;;3.13;1.40;;;7.40;99.90;;;;;;5051026;28;20029;-76
2023/10/20 10:21:38;;;;;;;2.03;1.08;;;7.30;99.90;;;;;;5068619;28;20082;-75
2023/10/20 10:24:16;;;;;;;2.65;1.10;;;7.30;99.90;;;;;;5058205;28;20481;-80
2023/10/20 10:26:45;;;;;;;2.83;1.20;;;7.30;99.90;;;;;;5047625;28;20040;-81
2023/10/20 10:29:12;;;;;;;1.48;1.02;;;7.30;99.90;;;;;;5083182;28;20064;-82
2023/10/20 10:31:38;;;;;;;3.60;1.13;;;7.30;99.90;;;;;;5071299;28;20053;-78
2023/10/20 10:34:04;;;;;;;4.22;1.45;;;7.40;99.90;;;;;;5072782;28;20046;-79
2023/10/20 10:36:47;;;;;;;2.08;1.38;;;7.20;99.90;;;;;;5053765;28;20488;-79
2023/10/20 10:39:29;;;;;;;3.22;1.40;;;7.20;99.90;;;;;;5070554;28;20041;-79
2023/10/20 10:42:05;;;;;;;2.63;1.60;;;7.20;99.90;;;;;;5071546;28;20041;-77
2023/10/20 10:44:40;;;;;;;1.27;0.93;;;7.30;99.90;;;;;;5051171;28;20427;-80
2023/10/20 10:47:17;;;;;;;3.17;1.40;;;7.30;99.90;;;;;;5038658;28;20063;-81
2023/10/20 10:49:47;;;;;;;2.22;1.20;;;7.20;99.90;;;;;;5055323;28;20101;-78
2023/10/20 10:52:13;;;;;;;2.70;1.17;;;7.20;99.90;;;;;;5088039;28;20045;-79
2023/10/20 10:54:38;;;;;;;1.77;0.80;;;7.20;99.90;;;;;;5070275;28;20036;-79
2023/10/20 10:57:05;;;;;;;2.20;1.00;;;7.20;99.90;;;;;;5053667;28;20535;-80
2023/10/20 10:59:31;;;;;;;2.10;0.90;;;7.20;99.90;;;;;;5051250;28;20040;-78
2023/10/20 11:02:00;;;;;;;2.45;1.08;;;7.20;99.90;;;;;;5052166;28;20485;-79
2023/10/20 11:04:27;;;;;;;1.17;0.60;;;7.20;99.90;;;;;;5068496;28;20037;-80
2023/10/20 11:06:52;;;;;;;1.58;0.73;;;7.10;99.90;;;;;;5054928;28;20119;-80
2023/10/20 11:09:26;;;;;;;1.38;0.98;;;7.20;99.90;;;;;;5055648;28;20119;-81
2023/10/20 11:11:52;;;;;;;2.25;0.80;;;7.20;99.90;;;;;;5055339;28;20135;-80
2023/10/20 11:14:19;;;;;;;1.00;0.77;;;7.20;99.90;;;;;;5055504;28;20119;-81
2023/10/20 11:16:45;;;;;;;1.15;0.73;;;7.10;99.90;;;;;;5067356;28;20048;-82
2023/10/20 11:19:14;;;;;;;3.13;0.90;;;7.20;99.90;;;;;;5044928;28;20047;-81
2023/10/20 11:21:53;;;;;;;1.45;0.70;;;7.10;99.90;;;;;;5067811;28;20047;-81
2023/10/20 11:24:34;;;;;;;1.42;0.80;;;7.20;99.90;;;;;;5048533;28;20089;-79
2023/10/20 11:27:07;;;;;;;1.73;0.80;;;7.10;99.90;;;;;;5058647;28;20571;-76
2023/10/20 11:29:36;;;;;;;2.35;0.90;;;7.10;99.90;;;;;;5053031;28;20120;-80
2023/10/20 11:32:07;;;;;;;2.05;1.00;;;7.00;99.90;;;;;;5054119;28;20377;-77
2023/10/20 11:34:36;;;;;;;1.58;0.80;;;7.10;99.90;;;;;;5042323;28;20087;-81
2023/10/20 11:37:03;;;;;;;4.18;1.20;;;7.20;99.90;;;;;;5055380;28;20036;-79
2023/10/20 11:39:29;;;;;;;3.22;1.10;;;7.20;99.90;;;;;;5051413;28;20560;-81
2023/10/20 11:41:55;;;;;;;1.45;0.68;;;7.10;99.90;;;;;;5052547;28;20131;-81
2023/10/20 11:44:25;;;;;;;2.53;0.93;;;7.20;99.90;;;;;;5053760;28;20028;-79
2023/10/20 11:46:52;;;;;;;2.15;1.25;;;7.20;99.90;;;;;;5050745;28;20029;-81
2023/10/20 11:49:19;;;;;;;4.07;1.25;;;7.10;99.90;;;;;;5057470;28;20040;-82
2023/10/20 11:51:44;;;;;;;1.98;0.90;;;7.10;99.90;;;;;;5080429;28;20094;-79
2023/10/20 11:54:10;;;;;;;1.88;0.90;;;7.00;99.90;;;;;;5051958;28;20032;-81
2023/10/20 11:56:36;;;;;;;2.17;0.88;;;7.00;99.90;;;;;;5049774;28;20101;-80
2023/10/20 11:59:02;;;;;;;2.75;1.10;;;7.00;99.90;;;;;;5059019;28;20467;-79
2023/10/20 12:01:28;;;;;;;1.20;0.68;;;7.00;99.90;;;;;;5051694;28;20075;-77
2023/10/20 12:03:54;;;;;;;2.50;1.10;;;7.10;99.90;;;;;;5053868;28;20032;-80
2023/10/20 12:06:20;;;;;;;1.42;0.80;;;7.10;99.90;;;;;;5064781;28;20109;-80
2023/10/20 12:08:45;;;;;;;1.38;0.90;;;7.20;99.90;;;;;;5061580;28;20512;-78
2023/10/20 12:11:11;;;;;;;2.88;1.25;;;7.10;99.90;;;;;;5051875;28;20033;-79
2023/10/20 12:13:36;;;;;;;5.13;1.30;;;7.10;99.90;;;;;;5069634;28;20497;-79
2023/10/20 12:16:05;;;;;;;2.47;0.90;;;7.00;99.90;;;;;;5052917;28;20101;-78
2023/10/20 12:18:32;;;;;;;1.67;0.98;;;7.00;99.90;;;;;;5036897;28;20060;-80
2023/10/20 12:20:57;;;;;;;1.00;0.60;;;7.00;99.90;;;;;;5063481;28;20075;-80
2023/10/20 12:23:23;;;;;;;1.20;0.88;;;7.00;99.90;;;;;;5050996;28;20072;-80
2023/10/20 12:25:48;;;;;;;1.98;1.00;;;7.10;99.90;;;;;;5049564;28;20032;-80
2023/10/20 12:28:14;;;;;;;1.75;0.90;;;7.10;99.90;;;;;;5055730;28;20542;-76
2023/10/20 12:30:40;;;;;;;1.33;0.80;;;7.10;99.90;;;;;;5068094;28;20044;-82
2023/10/20 12:33:05;;;;;;;1.05;0.63;;;7.00;99.90;;;;;;5064087;28;20115;-78
2023/10/20 12:35:31;;;;;;;1.33;0.90;;;7.10;99.90;;;;;;5047318;28;20033;-82
2023/10/20 12:37:57;;;;;;;1.20;0.80;;;7.10;99.90;;;;;;5054728;28;20036;-80
2023/10/20 12:40:22;;;;;;;2.08;0.75;;;7.10;99.90;;;;;;5056053;28;20044;-83
2023/10/20 12:42:49;;;;;;;1.35;0.80;;;7.10;99.90;;;;;;5056310;28;20041;-84
2023/10/20 12:45:16;;;;;;;2.30;0.85;;;7.10;99.90;;;;;;5073596;28;20489;-84
2023/10/20 12:47:42;;;;;;;0.82;0.70;;;7.10;99.90;;;;;;5068549;28;20515;-82
2023/10/20 12:50:08;;;;;;;1.85;0.80;;;7.10;99.90;;;;;;5057006;28;20036;-84
2023/10/20 12:52:34;;;;;;;1.80;0.80;;;7.10;99.90;;;;;;5068176;28;20047;-84
2023/10/20 12:55:00;;;;;;;2.38;0.73;;;7.10;99.90;;;;;;5065807;28;20053;-83
2023/10/20 12:57:26;;;;;;;1.15;0.70;;;7.00;99.90;;;;;;5067115;28;20055;-84
2023/10/20 12:59:52;;;;;;;1.30;0.63;;;7.10;99.90;;;;;;5073914;28;20040;-85
2023/10/20 13:02:18;;;;;;;0.95;0.60;;;7.10;99.90;;;;;;5053955;28;20098;-84
2023/10/20 13:04:43;;;;;;;0.90;0.60;;;7.00;99.90;;;;;;5042981;28;20473;-83
2023/10/20 13:07:09;;;;;;;1.50;0.70;;;7.10;99.90;;;;;;5071081;28;20123;-83
2023/10/20 13:09:35;;;;;;;1.50;0.60;;;7.10;99.90;;;;;;5073849;28;20040;-82
2023/10/20 13:12:00;;;;;;;1.77;0.60;;;7.00;99.90;;;;;;5087290;28;20123;-79
2023/10/20 13:14:27;;;;;;;1.20;0.80;;;7.00;99.90;;;;;;5057580;28;20043;-78
2023/10/20 13:16:53;;;;;;;1.45;0.80;;;6.90;99.90;;;;;;5055580;28;20043;-80
2023/10/20 13:19:19;;;;;;;2.17;0.85;;;7.00;99.90;;;;;;5056197;28;20040;-79
2023/10/20 13:21:44;;;;;;;0.73;0.68;;;7.10;99.90;;;;;;5059307;28;20071;-79
2023/10/20 13:24:11;;;;;;;2.10;0.80;;;7.00;99.90;;;;;;5067591;28;20039;-80
2023/10/20 13:26:37;;;;;;;2.55;1.08;;;7.10;99.90;;;;;;5069614;28;20116;-81